Terminal Aerodrome Forecast
Issued by NWS

Current Version | Previous Version | Text Only | Print | Product List | Glossary Off
Versions: 1 2 3 4 5 6 7 8 9 10 11 12 13 14 15 16 17 18 19 20 21 22 23

000
FTUS41 KILN 311730
TAFLUK
TAF
KLUK 311730Z 3118/0118 30005KT P6SM VCTS BKN050CB
      TEMPO 3119/3122 5SM -TSRA BR OVC040CB
     FM010000 36004KT P6SM BKN120
     FM010600 01004KT 5SM BR SCT005
     FM011200 01007KT P6SM SKC=

USA.gov is the U.S. government's official web portal to all federal, state and local government web resources and services.